createdAt,value
2019-04-30T00:00:02.715Z,14.82
2019-04-30T00:01:07.318Z,15
2019-04-30T00:02:05.551Z,15.84
2019-04-30T00:03:06.482Z,15.01
2019-04-30T00:04:03.463Z,17.32
2019-04-30T00:05:05.323Z,17.59
2019-04-30T00:06:03.247Z,15.14
2019-04-30T00:07:05.491Z,14.31
2019-04-30T00:08:03.308Z,16.89
2019-04-30T00:09:05.354Z,17.29
2019-04-30T00:10:03.725Z,14.27
2019-04-30T00:11:02.863Z,15.75
2019-04-30T00:12:05.512Z,13.95
2019-04-30T00:13:03.296Z,17.33
2019-04-30T00:14:03.372Z,13.38
2019-04-30T00:15:03.507Z,17.23
2019-04-30T00:16:05.196Z,13.12
2019-04-30T00:17:03.197Z,15.88
2019-04-30T00:18:05.404Z,16.72
2019-04-30T00:19:03.279Z,21.71
2019-04-30T00:20:05.194Z,14.81
2019-04-30T00:21:05.260Z,16.45
2019-04-30T00:22:03.113Z,16.67
2019-04-30T00:23:05.014Z,15.15
2019-04-30T00:24:06.076Z,15.15
2019-04-30T00:25:05.242Z,14.39
2019-04-30T00:26:05.854Z,14.39
2019-04-30T00:27:04.986Z,14.9
2019-04-30T00:28:05.105Z,16.39
2019-04-30T00:29:02.665Z,15.85
2019-04-30T00:30:05.318Z,18.32
2019-04-30T00:31:02.908Z,18.32
2019-04-30T00:32:04.197Z,17.79
2019-04-30T00:33:03.018Z,16.46
2019-04-30T00:34:05.011Z,15.23
2019-04-30T00:35:03.297Z,13.74
2019-04-30T00:36:04.945Z,16.91
2019-04-30T00:37:07.143Z,14.99
2019-04-30T00:38:05.026Z,14.75
2019-04-30T00:39:07.056Z,16.8
2019-04-30T00:40:02.749Z,13.19
2019-04-30T00:41:06.674Z,14.08
2019-04-30T00:42:04.900Z,15.55
2019-04-30T00:43:05.127Z,13.66
2019-04-30T00:44:02.755Z,13.66
2019-04-30T00:45:04.635Z,12.78
2019-04-30T00:46:02.853Z,13.69
2019-04-30T00:47:04.815Z,15.89
2019-04-30T00:48:02.864Z,12.9
2019-04-30T00:49:09.010Z,15.33
2019-04-30T00:50:04.685Z,13.99
2019-04-30T00:51:07.344Z,14.81
2019-04-30T00:52:02.798Z,12.85
2019-04-30T00:53:05.778Z,14.18
2019-04-30T00:54:03.169Z,13.86
2019-04-30T00:55:05.383Z,14.4
2019-04-30T00:56:05.542Z,12.92
2019-04-30T00:57:07.337Z,12.39
2019-04-30T00:58:03.504Z,13.09
2019-04-30T00:59:06.919Z,19.26
2019-04-30T01:00:04.992Z,15.16
2019-04-30T01:01:04.782Z,13.78
2019-04-30T01:02:03.599Z,14.05
2019-04-30T01:03:05.759Z,12.43
2019-04-30T01:04:05.008Z,14.31
2019-04-30T01:05:05.143Z,14.36
2019-04-30T01:06:05.263Z,12.02
2019-04-30T01:07:05.098Z,13.93
2019-04-30T01:08:04.933Z,12.88
2019-04-30T01:09:05.281Z,17.46
2019-04-30T01:10:05.068Z,16.04
2019-04-30T01:11:04.463Z,14.24
2019-04-30T01:12:03.007Z,14.49
2019-04-30T01:13:07.890Z,12.92
2019-04-30T01:14:03.101Z,12.92
2019-04-30T01:15:06.368Z,13.65
2019-04-30T01:16:03.136Z,13.65
2019-04-30T01:17:03.667Z,15.69
2019-04-30T01:18:02.954Z,15.51
2019-04-30T01:19:05.644Z,15.51
2019-04-30T01:20:02.787Z,17.84
2019-04-30T01:21:06.913Z,14.43
2019-04-30T01:22:02.833Z,15.65
2019-04-30T01:23:07.888Z,15.38
2019-04-30T01:24:02.470Z,14.99
2019-04-30T01:25:08.771Z,15.14
2019-04-30T01:26:03.621Z,14.42
2019-04-30T01:27:06.658Z,15.68
2019-04-30T01:28:03.445Z,17.54
2019-04-30T01:29:03.431Z,15.79
2019-04-30T01:30:03.336Z,15.03
2019-04-30T01:31:03.385Z,18.24
2019-04-30T01:32:01.784Z,14.22
2019-04-30T01:33:02.920Z,14.49
2019-04-30T01:34:05.016Z,15.1
2019-04-30T01:35:03.310Z,16.45
2019-04-30T01:36:03.973Z,16.06
2019-04-30T01:37:02.898Z,16.96
2019-04-30T01:38:08.121Z,15.48
2019-04-30T01:39:03.106Z,19.64
2019-04-30T01:40:06.908Z,15.74
2019-04-30T01:41:02.950Z,18.71
2019-04-30T01:42:07.222Z,18.32
2019-04-30T01:43:03.626Z,17.05
2019-04-30T01:44:03.902Z,17.15
2019-04-30T01:45:03.683Z,18.29
2019-04-30T01:46:09.163Z,16.99
2019-04-30T01:47:03.596Z,14.84
2019-04-30T01:48:08.564Z,19.92
2019-04-30T01:49:03.427Z,16.76
2019-04-30T01:50:04.935Z,16.39
2019-04-30T01:51:03.446Z,15.62
2019-04-30T01:52:03.286Z,15.54
2019-04-30T01:53:04.692Z,14.69
2019-04-30T01:54:03.268Z,19.46
2019-04-30T01:55:03.449Z,17.8
2019-04-30T01:56:02.904Z,16.76
2019-04-30T01:57:03.045Z,18.32
2019-04-30T01:58:03.011Z,18.44
2019-04-30T01:59:03.181Z,17.74
2019-04-30T02:00:02.794Z,17.38
2019-04-30T02:01:03.562Z,15.61
2019-04-30T02:02:02.909Z,13.72
2019-04-30T02:03:02.907Z,17.95
2019-04-30T02:04:02.988Z,17.95
2019-04-30T02:05:02.920Z,17.21
2019-04-30T02:06:03.000Z,17.21
2019-04-30T02:07:03.540Z,16.62
2019-04-30T02:08:03.398Z,18.84
2019-04-30T02:09:03.870Z,18.84
2019-04-30T02:10:03.697Z,18.22
2019-04-30T02:11:03.502Z,15.44
2019-04-30T02:12:03.534Z,16.65
2019-04-30T02:13:03.495Z,18.31
2019-04-30T02:14:03.510Z,18.22
2019-04-30T02:15:03.671Z,20.95
2019-04-30T02:16:03.077Z,17.26
2019-04-30T02:17:02.860Z,16.85
2019-04-30T02:18:03.103Z,13.98
2019-04-30T02:19:03.262Z,13.88
2019-04-30T02:20:03.109Z,21.66
2019-04-30T02:21:02.927Z,16.84
2019-04-30T02:22:03.557Z,14.95
2019-04-30T02:23:02.927Z,15.79
2019-04-30T02:24:02.856Z,17.34
2019-04-30T02:25:02.889Z,14.68
2019-04-30T02:26:03.118Z,14.73
2019-04-30T02:27:02.875Z,16.73
2019-04-30T02:28:02.763Z,13.49
2019-04-30T02:29:03.788Z,14.77
2019-04-30T02:30:02.925Z,13.56
2019-04-30T02:31:03.534Z,14.04
2019-04-30T02:32:03.354Z,14.19
2019-04-30T02:33:03.658Z,15.16
2019-04-30T02:34:03.544Z,16.01
2019-04-30T02:35:03.445Z,14.78
2019-04-30T02:36:03.998Z,16.58
2019-04-30T02:37:03.456Z,13.61
2019-04-30T02:38:03.174Z,17.81
2019-04-30T02:39:03.305Z,13.86
2019-04-30T02:40:03.232Z,12.38
2019-04-30T02:41:02.945Z,14.64
2019-04-30T02:42:03.002Z,15.24
2019-04-30T02:43:03.143Z,16.28
2019-04-30T02:44:02.911Z,16.72
2019-04-30T02:45:03.680Z,13.71
2019-04-30T02:46:02.859Z,15.04
2019-04-30T02:47:02.709Z,16.28
2019-04-30T02:48:02.783Z,16.33
2019-04-30T02:49:02.784Z,14.76
2019-04-30T02:50:13.514Z,14.49
2019-04-30T02:51:02.644Z,17.71
2019-04-30T02:52:03.581Z,13.28
2019-04-30T02:53:03.628Z,12.53
2019-04-30T02:54:03.533Z,12.93
2019-04-30T02:55:03.399Z,13.58
2019-04-30T02:56:03.668Z,14.31
2019-04-30T02:57:03.538Z,14.31
2019-04-30T02:58:03.676Z,12.35
2019-04-30T02:59:04.090Z,11.52
2019-04-30T03:00:03.389Z,14.02
2019-04-30T03:01:03.542Z,14.9
2019-04-30T03:02:03.101Z,14.94
2019-04-30T03:03:03.435Z,12.88
2019-04-30T03:04:02.931Z,11.22
2019-04-30T03:05:03.299Z,12.88
2019-04-30T03:06:02.969Z,12.95
2019-04-30T03:07:03.146Z,12.78
2019-04-30T03:08:02.825Z,13.22
2019-04-30T03:09:02.995Z,14.98
2019-04-30T03:10:03.246Z,14.09
2019-04-30T03:11:03.140Z,12.32
2019-04-30T03:12:02.778Z,11.66
2019-04-30T03:13:02.827Z,12.73
2019-04-30T03:14:03.062Z,12.21
2019-04-30T03:15:02.926Z,12.38
2019-04-30T03:16:04.069Z,12.89
2019-04-30T03:17:02.787Z,12.89
2019-04-30T03:18:03.575Z,17.65
2019-04-30T03:19:03.217Z,12.08
2019-04-30T03:20:03.803Z,12.92
2019-04-30T03:21:03.679Z,12.72
2019-04-30T03:22:03.700Z,12.05
2019-04-30T03:23:03.175Z,13.45
2019-04-30T03:24:02.970Z,10.78
2019-04-30T03:25:03.443Z,12.41
2019-04-30T03:26:02.708Z,12.01
2019-04-30T03:27:03.023Z,10.81
2019-04-30T03:28:03.208Z,11.81
2019-04-30T03:29:02.981Z,12.85
2019-04-30T03:30:03.053Z,14.48
2019-04-30T03:31:04.193Z,15.12
2019-04-30T03:32:03.641Z,10.4
2019-04-30T03:33:03.202Z,10.86
2019-04-30T03:34:02.716Z,12.44
2019-04-30T03:35:03.547Z,11.76
2019-04-30T03:36:02.896Z,10.31
2019-04-30T03:37:03.825Z,12.36
2019-04-30T03:38:03.457Z,12.56
2019-04-30T03:39:03.589Z,10.84
2019-04-30T03:40:03.382Z,10.31
2019-04-30T03:41:03.309Z,11.68
2019-04-30T03:42:03.606Z,12.19
2019-04-30T03:43:03.335Z,10.79
2019-04-30T03:44:17.072Z,10.47
2019-04-30T03:45:03.288Z,10.47
2019-04-30T03:46:03.162Z,11.82
2019-04-30T03:47:03.262Z,9.94
2019-04-30T03:48:03.388Z,9.94
2019-04-30T03:49:02.986Z,10.22
2019-04-30T03:50:03.297Z,10.28
2019-04-30T03:51:03.172Z,10.28
2019-04-30T03:52:03.117Z,9.11
2019-04-30T03:53:02.958Z,8.51
2019-04-30T03:54:02.977Z,9.46
2019-04-30T03:55:03.145Z,12.11
2019-04-30T03:56:02.999Z,9.27
2019-04-30T03:57:02.999Z,11.19
2019-04-30T03:58:02.569Z,10.06
2019-04-30T03:59:02.947Z,8.93
2019-04-30T04:00:02.954Z,8.11
2019-04-30T04:01:02.744Z,9.02
2019-04-30T04:02:02.810Z,12.49
2019-04-30T04:03:02.921Z,10.06
2019-04-30T04:04:03.511Z,9.97
2019-04-30T04:05:03.704Z,9.05
2019-04-30T04:06:03.574Z,9.23
2019-04-30T04:07:03.338Z,8.72
2019-04-30T04:08:03.695Z,9.74
2019-04-30T04:09:03.278Z,9.31
2019-04-30T04:10:03.619Z,10.18
2019-04-30T04:11:03.212Z,10.85
2019-04-30T04:12:03.414Z,10.03
2019-04-30T04:13:03.347Z,9.98
2019-04-30T04:14:03.444Z,10.72
2019-04-30T04:15:03.833Z,11.71
2019-04-30T04:16:03.231Z,9.08
2019-04-30T04:17:03.176Z,9.55
2019-04-30T04:18:03.481Z,8.48
2019-04-30T04:19:03.200Z,10.95
2019-04-30T04:20:02.880Z,9.25
2019-04-30T04:21:11.242Z,9.12
2019-04-30T04:22:04.170Z,11.54
2019-04-30T04:23:03.008Z,9.94
2019-04-30T04:24:02.769Z,11.04
2019-04-30T04:25:03.658Z,15.79
2019-04-30T04:26:02.732Z,11.62
2019-04-30T04:27:03.735Z,13.1
2019-04-30T04:28:03.470Z,12.41
2019-04-30T04:29:03.464Z,11.74
2019-04-30T04:30:03.556Z,13.85
2019-04-30T04:31:03.122Z,14.06
2019-04-30T04:32:03.346Z,14.06
2019-04-30T04:33:03.370Z,16.8
2019-04-30T04:34:03.533Z,16.8
2019-04-30T04:35:03.105Z,16.21
2019-04-30T04:36:03.385Z,15.16
2019-04-30T04:37:03.307Z,17.26
2019-04-30T04:38:03.203Z,13.14
2019-04-30T04:39:03.159Z,14.91
2019-04-30T04:40:03.068Z,18.66
2019-04-30T04:41:03.218Z,18.34
2019-04-30T04:42:03.163Z,16.72
2019-04-30T04:43:03.118Z,16.72
2019-04-30T04:44:02.804Z,17.99
2019-04-30T04:45:03.008Z,19.97
2019-04-30T04:46:03.608Z,17.08
2019-04-30T04:47:03.806Z,19.82
2019-04-30T04:48:03.761Z,17.36
2019-04-30T04:49:03.459Z,16.09
2019-04-30T04:50:03.832Z,17.61
2019-04-30T04:51:03.750Z,18.26
2019-04-30T04:52:04.505Z,16.77
2019-04-30T04:53:03.457Z,17.59
2019-04-30T04:54:03.645Z,20.35
2019-04-30T04:55:03.352Z,20.62
2019-04-30T04:56:03.287Z,18.91
2019-04-30T04:57:14.686Z,16
2019-04-30T04:58:03.353Z,19.95
2019-04-30T04:59:01.945Z,21.47
2019-04-30T05:00:07.295Z,17.75
2019-04-30T05:01:03.441Z,20.91
2019-04-30T05:02:02.891Z,19.05
2019-04-30T05:03:03.302Z,18.93
2019-04-30T05:04:03.066Z,19.52
2019-04-30T05:05:03.175Z,19.16
2019-04-30T05:06:03.000Z,25.08
2019-04-30T05:07:03.061Z,21.47
2019-04-30T05:08:03.065Z,17.45
2019-04-30T05:09:02.962Z,28.22
2019-04-30T05:10:02.899Z,28.15
2019-04-30T05:11:02.816Z,23.49
2019-04-30T05:12:03.803Z,25.8
2019-04-30T05:13:02.610Z,26.58
2019-04-30T05:14:02.750Z,28.51
2019-04-30T05:15:03.782Z,30.54
2019-04-30T05:16:03.421Z,23.42
2019-04-30T05:17:03.933Z,36.41
2019-04-30T05:18:03.390Z,26.18
2019-04-30T05:19:03.227Z,25.21
2019-04-30T05:20:03.388Z,34.54
2019-04-30T05:21:03.587Z,29.05
2019-04-30T05:22:03.379Z,32.36
2019-04-30T05:23:03.595Z,27.23
2019-04-30T05:24:03.447Z,31.71
2019-04-30T05:25:03.458Z,31.71
2019-04-30T05:26:03.496Z,28.67
2019-04-30T05:27:03.241Z,28.05
2019-04-30T05:28:03.264Z,28.05
2019-04-30T05:29:03.175Z,32.41
2019-04-30T05:30:03.009Z,30.47
2019-04-30T05:31:02.815Z,30.47
2019-04-30T05:32:03.105Z,30.35
2019-04-30T05:33:02.897Z,42.41
2019-04-30T05:34:06.173Z,35.69
2019-04-30T05:35:03.331Z,38.78
2019-04-30T05:36:03.371Z,38.68
2019-04-30T05:37:03.233Z,35.66
2019-04-30T05:38:03.208Z,34.61
2019-04-30T05:39:02.983Z,33.81
2019-04-30T05:40:02.883Z,32.27
2019-04-30T05:41:03.105Z,33.82
2019-04-30T05:42:02.618Z,39.34
2019-04-30T05:43:03.041Z,29.65
2019-04-30T05:44:02.778Z,36.23
2019-04-30T05:45:03.001Z,33.67
2019-04-30T05:46:02.823Z,30.63
2019-04-30T05:47:02.978Z,27.75
2019-04-30T05:48:02.964Z,29.67
2019-04-30T05:49:03.596Z,30.58
2019-04-30T05:50:03.819Z,31.18
2019-04-30T05:51:03.496Z,29.8
2019-04-30T05:52:02.972Z,29.52
2019-04-30T05:53:03.421Z,29.39
2019-04-30T05:54:03.295Z,32.31
2019-04-30T05:55:03.634Z,32.9
2019-04-30T05:56:03.271Z,32.86
2019-04-30T05:57:03.758Z,30.8
2019-04-30T05:58:03.699Z,37.89
2019-04-30T05:59:03.443Z,33.49
2019-04-30T06:00:03.561Z,37.29
2019-04-30T06:01:03.356Z,28.58
2019-04-30T06:02:03.499Z,30.9
2019-04-30T06:03:03.462Z,37.9
2019-04-30T06:04:03.106Z,34.31
2019-04-30T06:05:03.412Z,42.67
2019-04-30T06:06:03.130Z,35.58
2019-04-30T06:07:03.311Z,34.36
2019-04-30T06:08:02.800Z,39.28
2019-04-30T06:09:06.571Z,33.22
2019-04-30T06:10:03.074Z,32.59
2019-04-30T06:11:03.085Z,29.32
2019-04-30T06:12:02.913Z,29.32
2019-04-30T06:13:03.124Z,33.37
2019-04-30T06:14:03.335Z,33.37
2019-04-30T06:15:03.114Z,34.43
2019-04-30T06:16:02.913Z,34.37
2019-04-30T06:17:02.864Z,36.26
2019-04-30T06:18:11.403Z,34.42
2019-04-30T06:19:02.917Z,31.82
2019-04-30T06:20:02.986Z,29.4
2019-04-30T06:21:03.368Z,31.42
2019-04-30T06:22:07.274Z,31.42
2019-04-30T06:23:03.558Z,30.59
2019-04-30T06:24:03.335Z,31.25
2019-04-30T06:25:04.061Z,32.94
2019-04-30T06:26:09.529Z,41.27
2019-04-30T06:27:03.676Z,33.7
2019-04-30T06:28:03.564Z,31.4
2019-04-30T06:29:03.658Z,34.12
2019-04-30T06:30:03.299Z,30.27
2019-04-30T06:31:03.457Z,39.26
2019-04-30T06:32:03.251Z,27.88
2019-04-30T06:33:03.692Z,30.96
2019-04-30T06:34:03.306Z,34.88
2019-04-30T06:35:03.319Z,33.54
2019-04-30T06:36:03.200Z,35.1
2019-04-30T06:37:03.315Z,29.63
2019-04-30T06:38:03.296Z,43.98
2019-04-30T06:39:03.371Z,34.13
2019-04-30T06:40:03.393Z,35.38
2019-04-30T06:41:02.779Z,34.21
2019-04-30T06:42:06.318Z,31.86
2019-04-30T06:43:02.977Z,37.01
2019-04-30T06:44:02.983Z,39.08
2019-04-30T06:45:03.669Z,30.9
2019-04-30T06:46:03.750Z,35.29
2019-04-30T06:47:02.771Z,35.48
2019-04-30T06:48:03.687Z,35.93
2019-04-30T06:49:03.566Z,32.6
2019-04-30T06:50:03.784Z,34
2019-04-30T06:51:03.503Z,31.59
2019-04-30T06:52:03.419Z,30.6
2019-04-30T06:53:03.195Z,30.41
2019-04-30T06:54:03.082Z,35.36
2019-04-30T06:55:03.213Z,30.69
2019-04-30T06:56:03.115Z,37.22
2019-04-30T06:57:03.235Z,29.38
2019-04-30T06:58:11.806Z,31.15
2019-04-30T06:59:03.277Z,33.26
2019-04-30T07:00:03.505Z,33.26
2019-04-30T07:01:03.143Z,30.29
2019-04-30T07:02:02.970Z,30.29
2019-04-30T07:03:03.269Z,35.89
2019-04-30T07:04:03.029Z,32.64
2019-04-30T07:05:03.345Z,32.64
2019-04-30T07:06:03.089Z,34.01
2019-04-30T07:07:02.715Z,31.82
2019-04-30T07:08:08.999Z,32.26
2019-04-30T07:09:02.854Z,29.01
2019-04-30T07:10:03.096Z,38.68
2019-04-30T07:11:07.367Z,29.99
2019-04-30T07:12:03.217Z,30.34
2019-04-30T07:13:03.788Z,29.56
2019-04-30T07:14:02.963Z,34.88
2019-04-30T07:15:03.938Z,26.22
2019-04-30T07:16:03.726Z,25.45
2019-04-30T07:17:03.627Z,27.24
2019-04-30T07:18:02.734Z,34.23
2019-04-30T07:19:03.665Z,27.04
2019-04-30T07:20:03.479Z,28.83
2019-04-30T07:21:03.555Z,29.15
2019-04-30T07:22:03.503Z,29.96
2019-04-30T07:23:03.519Z,27.01
2019-04-30T07:24:03.193Z,31.62
2019-04-30T07:25:03.590Z,35.52
2019-04-30T07:26:02.749Z,33.64
2019-04-30T07:27:03.286Z,33.89
2019-04-30T07:28:03.099Z,34.55
2019-04-30T07:29:03.131Z,29.66
2019-04-30T07:30:02.929Z,32.36
2019-04-30T07:31:11.215Z,30.51
2019-04-30T07:32:02.736Z,30.21
2019-04-30T07:33:03.908Z,31.21
2019-04-30T07:34:02.719Z,28.19
2019-04-30T07:35:03.695Z,28.92
2019-04-30T07:36:03.093Z,27.92
2019-04-30T07:37:13.970Z,25.33
2019-04-30T07:38:04.776Z,32.16
2019-04-30T07:39:03.642Z,28.85
2019-04-30T07:40:02.735Z,27.21
2019-04-30T07:41:03.441Z,26.94
2019-04-30T07:42:02.909Z,28.3
2019-04-30T07:43:03.307Z,25.14
2019-04-30T07:44:03.360Z,24.88
2019-04-30T07:45:03.495Z,25.99
2019-04-30T07:46:03.129Z,24.42
2019-04-30T07:47:03.149Z,33.99
2019-04-30T07:48:03.466Z,25.92
2019-04-30T07:49:02.994Z,25.92
2019-04-30T07:50:03.137Z,27.55
2019-04-30T07:51:02.989Z,26.52
2019-04-30T07:52:03.508Z,26.52
2019-04-30T07:53:06.265Z,25.8
2019-04-30T07:54:03.631Z,26.35
2019-04-30T07:55:02.949Z,26.35
2019-04-30T07:56:02.603Z,23.73
2019-04-30T07:57:02.752Z,24.96
2019-04-30T07:58:03.634Z,21.09
2019-04-30T07:59:03.585Z,23.01
2019-04-30T08:00:03.617Z,23.8
2019-04-30T08:01:03.666Z,23.82
2019-04-30T08:02:10.822Z,25.68
2019-04-30T08:03:03.482Z,22.01
2019-04-30T08:04:03.287Z,23.62
2019-04-30T08:05:03.266Z,23.84
2019-04-30T08:06:03.304Z,21.64
2019-04-30T08:07:03.459Z,22.22
2019-04-30T08:08:17.547Z,20.95
2019-04-30T08:09:03.541Z,23.45
2019-04-30T08:10:03.410Z,23.75
2019-04-30T08:11:03.009Z,22.16
2019-04-30T08:12:03.422Z,21.57
2019-04-30T08:13:09.962Z,22.18
2019-04-30T08:14:03.788Z,22.86
2019-04-30T08:15:03.202Z,19.91
2019-04-30T08:16:03.082Z,24.11
2019-04-30T08:17:03.063Z,22.36
2019-04-30T08:18:05.794Z,22.44
2019-04-30T08:19:03.121Z,25.31
2019-04-30T08:20:02.795Z,23.3
2019-04-30T08:21:03.239Z,21.3
2019-04-30T08:22:03.877Z,22.24
2019-04-30T08:23:13.984Z,21.42
2019-04-30T08:24:02.941Z,21.9
2019-04-30T08:25:02.694Z,21.95
2019-04-30T08:26:03.787Z,23.61
2019-04-30T08:27:02.940Z,22.74
2019-04-30T08:28:02.943Z,20.35
2019-04-30T08:29:03.798Z,21.51
2019-04-30T08:30:03.751Z,22.49
2019-04-30T08:31:03.466Z,23.3
2019-04-30T08:32:03.609Z,21.78
2019-04-30T08:33:03.356Z,24.8
2019-04-30T08:34:03.738Z,18.54
2019-04-30T08:35:03.350Z,25.53
2019-04-30T08:36:03.478Z,23.16
2019-04-30T08:37:12.807Z,20.16
2019-04-30T08:38:03.369Z,20.16
2019-04-30T08:39:03.546Z,23.45
2019-04-30T08:40:03.631Z,23.45
2019-04-30T08:41:03.269Z,25.48
2019-04-30T08:42:03.293Z,25.75
2019-04-30T08:43:03.326Z,28.56
2019-04-30T08:44:03.386Z,29.38
2019-04-30T08:45:03.499Z,27.89
2019-04-30T08:46:03.130Z,28.36
2019-04-30T08:47:03.340Z,28.05
2019-04-30T08:48:03.093Z,31.37
2019-04-30T08:49:03.464Z,31.09
2019-04-30T08:50:03.290Z,30.85
2019-04-30T08:51:03.314Z,30.59
2019-04-30T08:52:02.600Z,29.01
2019-04-30T08:53:03.084Z,31.08
2019-04-30T08:54:02.960Z,26.09
2019-04-30T08:55:13.209Z,31.24
2019-04-30T08:56:03.772Z,38.57
2019-04-30T08:57:03.573Z,29.64
2019-04-30T08:58:09.741Z,29.09
2019-04-30T08:59:03.790Z,24.34
2019-04-30T09:00:03.836Z,24.69
2019-04-30T09:01:04.095Z,27.04
2019-04-30T09:02:13.463Z,27.18
2019-04-30T09:03:03.717Z,28.62
2019-04-30T09:04:03.567Z,25.01
2019-04-30T09:05:03.812Z,32.05
2019-04-30T09:06:03.364Z,28.36
2019-04-30T09:07:03.804Z,24.65
2019-04-30T09:08:03.801Z,24.35
2019-04-30T09:09:03.349Z,24.58
2019-04-30T09:10:04.826Z,23.69
2019-04-30T09:11:02.284Z,26.89
2019-04-30T09:12:03.186Z,25.27
2019-04-30T09:13:03.043Z,25.52
2019-04-30T09:14:03.285Z,23.94
2019-04-30T09:15:03.015Z,24.44
2019-04-30T09:16:03.216Z,21.91
2019-04-30T09:17:03.019Z,24.54
2019-04-30T09:18:06.457Z,23.27
2019-04-30T09:19:03.185Z,22.82
2019-04-30T09:20:03.095Z,21.48
2019-04-30T09:21:06.175Z,20.99
2019-04-30T09:22:11.045Z,29.31
2019-04-30T09:23:03.358Z,21.95
2019-04-30T09:24:03.023Z,22.94
2019-04-30T09:25:03.346Z,23.41
2019-04-30T09:26:02.897Z,23.41
2019-04-30T09:27:02.754Z,23.78
2019-04-30T09:28:04.481Z,19.05
2019-04-30T09:29:02.930Z,19.05
2019-04-30T09:30:03.053Z,19.15
2019-04-30T09:31:02.832Z,20.35
2019-04-30T09:32:03.036Z,20.35
2019-04-30T09:33:03.135Z,17.75
2019-04-30T09:34:14.144Z,19.51
2019-04-30T09:35:03.231Z,18.6
2019-04-30T09:36:03.040Z,20.59
2019-04-30T09:37:02.745Z,20.13
2019-04-30T09:38:03.841Z,18.46
2019-04-30T09:39:02.767Z,21.28
2019-04-30T09:40:15.144Z,20.25
2019-04-30T09:41:03.520Z,24.49
2019-04-30T09:42:02.834Z,17.04
2019-04-30T09:43:03.706Z,18.32
2019-04-30T09:44:02.940Z,19.11
2019-04-30T09:45:03.621Z,20.66
2019-04-30T09:46:14.718Z,19.51
2019-04-30T09:47:03.021Z,17.94
2019-04-30T09:48:03.012Z,22.37
2019-04-30T09:49:03.702Z,19.83
2019-04-30T09:50:03.847Z,17.47
2019-04-30T09:51:02.706Z,19.34
2019-04-30T09:52:03.307Z,23.41
2019-04-30T09:53:03.548Z,19.69
2019-04-30T09:54:04.130Z,22.24
2019-04-30T09:55:03.386Z,19.91
2019-04-30T09:56:03.366Z,17.43
2019-04-30T09:57:03.602Z,18.78
2019-04-30T09:58:14.107Z,23.79
2019-04-30T09:59:03.019Z,19.22
2019-04-30T10:00:03.132Z,22.92
2019-04-30T10:01:02.862Z,16.58
2019-04-30T10:02:03.568Z,24.69
2019-04-30T10:03:03.889Z,18.31
2019-04-30T10:04:03.881Z,18.42
2019-04-30T10:05:02.653Z,19.79
2019-04-30T10:06:03.684Z,21.31
2019-04-30T10:07:02.914Z,22.09
2019-04-30T10:08:03.589Z,25.24
2019-04-30T10:09:03.377Z,19.09
2019-04-30T10:10:03.285Z,19.41
2019-04-30T10:11:03.479Z,20.35
2019-04-30T10:12:03.563Z,21.36
2019-04-30T10:13:03.518Z,20.3
2019-04-30T10:14:03.714Z,20.62
2019-04-30T10:15:03.760Z,20.62
2019-04-30T10:16:02.973Z,26.76
2019-04-30T10:17:03.420Z,19.02
2019-04-30T10:18:03.250Z,19.02
2019-04-30T10:19:03.099Z,15.99
2019-04-30T10:20:03.471Z,15.99
2019-04-30T10:21:02.950Z,19.34
2019-04-30T10:22:03.234Z,17.66
2019-04-30T10:23:03.192Z,17.21
2019-04-30T10:24:12.953Z,20.02
2019-04-30T10:25:02.904Z,15.85
2019-04-30T10:26:03.304Z,19.26
2019-04-30T10:27:02.980Z,34.75
2019-04-30T10:28:02.987Z,16.64
2019-04-30T10:29:02.850Z,18.11
2019-04-30T10:30:03.004Z,18.69
2019-04-30T10:31:03.562Z,20.92
2019-04-30T10:32:03.418Z,16.96
2019-04-30T10:33:02.767Z,17.07
2019-04-30T10:34:03.495Z,18.64
2019-04-30T10:35:03.309Z,19.52
2019-04-30T10:36:03.537Z,18.93
2019-04-30T10:37:03.244Z,45.91
2019-04-30T10:38:01.983Z,20.41
2019-04-30T10:39:03.287Z,24.33
2019-04-30T10:40:03.008Z,18.62
2019-04-30T10:41:03.727Z,17.89
2019-04-30T10:42:02.243Z,18.73
2019-04-30T10:43:03.234Z,17.63
2019-04-30T10:44:02.961Z,17.8
2019-04-30T10:45:03.039Z,18.87
2019-04-30T10:46:03.450Z,22.55
2019-04-30T10:47:03.215Z,18.96
2019-04-30T10:48:03.038Z,24.43
2019-04-30T10:49:02.755Z,18.89
2019-04-30T10:50:03.156Z,25.8
2019-04-30T10:51:03.015Z,15.75
2019-04-30T10:52:03.008Z,17.38
2019-04-30T10:53:02.515Z,16.14
2019-04-30T10:54:02.893Z,17.94
2019-04-30T10:55:04.623Z,14.78
2019-04-30T10:56:03.242Z,16.94
2019-04-30T10:57:02.902Z,16.2
2019-04-30T10:58:02.906Z,18.46
2019-04-30T10:59:03.365Z,19.43
2019-04-30T11:00:04.125Z,16.17
2019-04-30T11:01:02.371Z,16.37
2019-04-30T11:02:03.662Z,22.22
2019-04-30T11:03:03.573Z,20.84
2019-04-30T11:04:03.695Z,17.48
2019-04-30T11:05:03.508Z,19.51
2019-04-30T11:06:03.150Z,17.32
2019-04-30T11:07:02.791Z,17.32
2019-04-30T11:08:02.925Z,20.11
2019-04-30T11:09:02.896Z,20.11
2019-04-30T11:10:03.121Z,24.16
2019-04-30T11:11:03.431Z,20.84
2019-04-30T11:12:03.254Z,20.84
2019-04-30T11:13:03.175Z,18.45
2019-04-30T11:14:03.126Z,20.69
2019-04-30T11:15:03.492Z,18.98
2019-04-30T11:16:12.360Z,18.74
2019-04-30T11:17:03.279Z,17.47
2019-04-30T11:18:03.272Z,17.28
2019-04-30T11:19:03.663Z,22.65
2019-04-30T11:20:02.929Z,19.08
2019-04-30T11:21:03.710Z,18.15
2019-04-30T11:22:03.155Z,20
2019-04-30T11:23:13.695Z,19.65
2019-04-30T11:24:03.326Z,19.26
2019-04-30T11:25:03.293Z,18.85
2019-04-30T11:26:03.139Z,19.04
2019-04-30T11:27:03.907Z,17.86
2019-04-30T11:28:03.919Z,19.85
2019-04-30T11:29:03.816Z,22.09
2019-04-30T11:30:04.262Z,18.34
2019-04-30T11:31:03.322Z,18.49
2019-04-30T11:32:03.447Z,23
2019-04-30T11:33:02.970Z,19.94
2019-04-30T11:34:02.937Z,19.01
2019-04-30T11:35:03.536Z,19.12
2019-04-30T11:36:05.030Z,19.84
2019-04-30T11:37:03.636Z,18.18
2019-04-30T11:38:03.128Z,19.44
2019-04-30T11:39:03.171Z,21.08
2019-04-30T11:40:03.496Z,21.31
2019-04-30T11:41:03.807Z,21.09
2019-04-30T11:42:02.815Z,18.49
2019-04-30T11:43:02.997Z,27.13
2019-04-30T11:44:03.570Z,21.53
2019-04-30T11:45:03.790Z,19.03
2019-04-30T11:46:02.689Z,21.59
2019-04-30T11:47:03.699Z,19.31
2019-04-30T11:48:03.229Z,22.42
2019-04-30T11:49:03.231Z,21.48
2019-04-30T11:50:03.464Z,25.54
2019-04-30T11:51:03.750Z,22.58
2019-04-30T11:52:03.616Z,24.96
2019-04-30T11:53:14.107Z,18.69
2019-04-30T11:54:03.403Z,19.38
2019-04-30T11:55:02.880Z,19.38
2019-04-30T11:56:03.434Z,20.01
2019-04-30T11:57:03.586Z,20.01
2019-04-30T11:58:03.357Z,21.26
2019-04-30T11:59:03.080Z,19.63
2019-04-30T12:00:03.547Z,19.63
2019-04-30T12:01:03.265Z,18.56
2019-04-30T12:02:03.520Z,18.31
2019-04-30T12:03:03.520Z,18.31
2019-04-30T12:04:03.002Z,19.05
2019-04-30T12:05:05.222Z,20.06
2019-04-30T12:06:03.552Z,19.87
2019-04-30T12:07:03.626Z,18.92
2019-04-30T12:08:02.930Z,23.99
2019-04-30T12:09:03.892Z,18.37
2019-04-30T12:10:03.368Z,26.13
2019-04-30T12:11:01.689Z,21.11
2019-04-30T12:12:03.160Z,20.88
2019-04-30T12:13:02.426Z,19.58
2019-04-30T12:14:02.823Z,21.63
2019-04-30T12:15:03.772Z,25.22
2019-04-30T12:16:03.563Z,21.96
2019-04-30T12:17:03.370Z,21.72
2019-04-30T12:18:03.331Z,23.25
2019-04-30T12:19:03.881Z,24.22
2019-04-30T12:20:03.739Z,20.94
2019-04-30T12:21:04.030Z,23.08
2019-04-30T12:22:03.663Z,18.78
2019-04-30T12:23:02.352Z,20.72
2019-04-30T12:24:03.374Z,20.68
2019-04-30T12:25:05.391Z,21.49
2019-04-30T12:26:03.138Z,20.04
2019-04-30T12:27:03.131Z,18.62
2019-04-30T12:28:03.322Z,21.68
2019-04-30T12:29:02.790Z,22.59
2019-04-30T12:30:03.081Z,20.04
2019-04-30T12:31:05.844Z,20.93
2019-04-30T12:32:02.731Z,18.39
2019-04-30T12:33:02.397Z,20.96
2019-04-30T12:34:02.870Z,19.8
2019-04-30T12:35:03.104Z,18.99
2019-04-30T12:36:03.001Z,19.89
2019-04-30T12:37:02.809Z,18.87
2019-04-30T12:38:03.322Z,23.68
2019-04-30T12:39:03.675Z,18.12
2019-04-30T12:40:03.055Z,21.82
2019-04-30T12:41:03.608Z,19.17
2019-04-30T12:42:02.669Z,20.5
2019-04-30T12:43:03.224Z,23.18
2019-04-30T12:44:02.791Z,19.39
2019-04-30T12:45:02.931Z,18.18
2019-04-30T12:46:05.461Z,18.18
2019-04-30T12:47:03.537Z,19.05
2019-04-30T12:48:03.515Z,20.84
2019-04-30T12:49:03.696Z,20.84
2019-04-30T12:50:03.392Z,19.91
2019-04-30T12:51:03.528Z,20.05
2019-04-30T12:52:03.418Z,22.29
2019-04-30T12:53:03.717Z,22.5
2019-04-30T12:54:03.075Z,27.34
2019-04-30T12:55:14.850Z,18.81